createdAt,value
2023-01-28T00:00:39.276Z,1003.33
2023-01-28T00:01:39.312Z,1003.36
2023-01-28T00:02:39.317Z,1003.40
2023-01-28T00:03:39.463Z,1003.40
2023-01-28T00:04:39.243Z,1003.39
2023-01-28T00:05:39.258Z,1003.46
2023-01-28T00:06:39.237Z,1003.43
2023-01-28T00:07:39.292Z,1003.45
2023-01-28T00:08:39.295Z,1003.45
2023-01-28T00:09:39.198Z,1003.43
2023-01-28T00:10:39.205Z,1003.45
2023-01-28T00:11:39.190Z,1003.45
2023-01-28T00:12:39.222Z,1003.45
2023-01-28T00:13:39.190Z,1003.44
2023-01-28T00:14:39.168Z,1003.41
2023-01-28T00:15:39.191Z,1003.42
2023-01-28T00:16:39.150Z,1003.42
2023-01-28T00:17:39.229Z,1003.46
2023-01-28T00:18:39.162Z,1003.45
2023-01-28T00:19:39.189Z,1003.44
2023-01-28T00:20:39.132Z,1003.42
2023-01-28T00:21:39.167Z,1003.36
2023-01-28T00:22:39.187Z,1003.37
2023-01-28T00:23:39.143Z,1003.32
2023-01-28T00:24:39.103Z,1003.34
2023-01-28T00:25:39.156Z,1003.35
2023-01-28T00:26:39.111Z,1003.36
2023-01-28T00:27:39.097Z,1003.40
2023-01-28T00:28:39.068Z,1003.32
2023-01-28T00:29:40.081Z,1003.36
2023-01-28T00:30:39.188Z,1003.37
2023-01-28T00:31:39.104Z,1003.28
2023-01-28T00:32:39.068Z,1003.31
2023-01-28T00:33:39.065Z,1003.27
2023-01-28T00:34:39.081Z,1003.27
2023-01-28T00:35:39.051Z,1003.31
2023-01-28T00:36:39.044Z,1003.33
2023-01-28T00:37:39.056Z,1003.28
2023-01-28T00:38:39.004Z,1003.31
2023-01-28T00:39:39.062Z,1003.31
2023-01-28T00:40:39.001Z,1003.28
2023-01-28T00:41:39.051Z,1003.30
2023-01-28T00:42:38.985Z,1003.29
2023-01-28T00:43:38.996Z,1003.27
2023-01-28T00:44:39.008Z,1003.27
2023-01-28T00:45:39.036Z,1003.32
2023-01-28T00:46:39.006Z,1003.21
2023-01-28T00:47:39.062Z,1003.29
2023-01-28T00:48:39.011Z,1003.28
2023-01-28T00:49:38.963Z,1003.34
2023-01-28T00:50:38.973Z,1003.33
2023-01-28T00:51:39.029Z,1003.30
2023-01-28T00:52:38.932Z,1003.29
2023-01-28T00:53:38.937Z,1003.25
2023-01-28T00:54:38.926Z,1003.27
2023-01-28T00:55:38.951Z,1003.25
2023-01-28T00:56:38.911Z,1003.20
2023-01-28T00:57:38.939Z,1003.19
2023-01-28T00:58:38.891Z,1003.20
2023-01-28T00:59:38.916Z,1003.19
2023-01-28T01:00:38.945Z,1003.19
2023-01-28T01:01:38.895Z,1003.25
2023-01-28T01:02:40.992Z,1003.25
2023-01-28T01:03:39.924Z,1003.16
2023-01-28T01:04:39.039Z,1003.14
2023-01-28T01:05:38.901Z,1003.19
2023-01-28T01:06:38.857Z,1003.22
2023-01-28T01:07:38.879Z,1003.22
2023-01-28T01:08:38.831Z,1003.24
2023-01-28T01:09:38.830Z,1003.28
2023-01-28T01:10:38.834Z,1003.26
2023-01-28T01:11:38.806Z,1003.22
2023-01-28T01:12:38.875Z,1003.16
2023-01-28T01:13:38.789Z,1003.22
2023-01-28T01:14:38.868Z,1003.20
2023-01-28T01:15:38.815Z,1003.22
2023-01-28T01:16:38.795Z,1003.21
2023-01-28T01:17:38.843Z,1003.19
2023-01-28T01:18:38.796Z,1003.20
2023-01-28T01:19:38.790Z,1003.17
2023-01-28T01:20:38.757Z,1003.16
2023-01-28T01:21:38.800Z,1003.21
2023-01-28T01:22:38.796Z,1003.24
2023-01-28T01:23:38.799Z,1003.26
2023-01-28T01:24:38.759Z,1003.25
2023-01-28T01:25:38.723Z,1003.26
2023-01-28T01:26:38.757Z,1003.25
2023-01-28T01:27:38.778Z,1003.24
2023-01-28T01:28:38.723Z,1003.20
2023-01-28T01:29:38.699Z,1003.24
2023-01-28T01:30:38.751Z,1003.29
2023-01-28T01:31:38.865Z,1003.26
2023-01-28T01:32:38.762Z,1003.26
2023-01-28T01:33:38.704Z,1003.28
2023-01-28T01:34:38.696Z,1003.26
2023-01-28T01:35:38.699Z,1003.23
2023-01-28T01:36:38.699Z,1003.24
2023-01-28T01:37:38.691Z,1003.24
2023-01-28T01:38:38.657Z,1003.25
2023-01-28T01:39:38.654Z,1003.26
2023-01-28T01:40:38.748Z,1003.24
2023-01-28T01:41:38.705Z,1003.31
2023-01-28T01:42:38.694Z,1003.22
2023-01-28T01:43:38.617Z,1003.30
2023-01-28T01:44:38.619Z,1003.31
2023-01-28T01:45:38.615Z,1003.28
2023-01-28T01:46:38.666Z,1003.33
2023-01-28T01:47:38.624Z,1003.30
2023-01-28T01:48:38.576Z,1003.23
2023-01-28T01:49:38.588Z,1003.26
2023-01-28T01:50:39.658Z,1003.25
2023-01-28T01:51:38.661Z,1003.24
2023-01-28T01:52:38.588Z,1003.25
2023-01-28T01:53:38.598Z,1003.22
2023-01-28T01:54:38.672Z,1003.26
2023-01-28T01:55:38.577Z,1003.26
2023-01-28T01:56:38.547Z,1003.24
2023-01-28T01:57:38.608Z,1003.27
2023-01-28T01:58:38.564Z,1003.29
2023-01-28T01:59:38.523Z,1003.25
2023-01-28T02:00:38.543Z,1003.29
2023-01-28T02:01:38.514Z,1003.27
2023-01-28T02:02:38.566Z,1003.28
2023-01-28T02:03:38.550Z,1003.33
2023-01-28T02:04:38.525Z,1003.37
2023-01-28T02:05:38.501Z,1003.36
2023-01-28T02:06:38.499Z,1003.40
2023-01-28T02:07:38.533Z,1003.36
2023-01-28T02:08:38.475Z,1003.37
2023-01-28T02:09:38.560Z,1003.40
2023-01-28T02:10:38.467Z,1003.37
2023-01-28T02:11:38.483Z,1003.38
2023-01-28T02:12:38.496Z,1003.35
2023-01-28T02:13:38.435Z,1003.36
2023-01-28T02:14:38.463Z,1003.39
2023-01-28T02:15:38.511Z,1003.42
2023-01-28T02:16:38.541Z,1003.48
2023-01-28T02:17:38.463Z,1003.51
2023-01-28T02:18:38.444Z,1003.46
2023-01-28T02:19:38.437Z,1003.45
2023-01-28T02:20:38.475Z,1003.48
2023-01-28T02:21:38.397Z,1003.50
2023-01-28T02:22:38.394Z,1003.51
2023-01-28T02:23:38.392Z,1003.49
2023-01-28T02:24:38.434Z,1003.49
2023-01-28T02:25:38.427Z,1003.55
2023-01-28T02:26:38.376Z,1003.55
2023-01-28T02:27:38.357Z,1003.53
2023-01-28T02:28:38.378Z,1003.54
2023-01-28T02:29:38.377Z,1003.55
2023-01-28T02:30:38.434Z,1003.62
2023-01-28T02:31:38.424Z,1003.58
2023-01-28T02:32:38.340Z,1003.62
2023-01-28T02:33:38.344Z,1003.61
2023-01-28T02:34:38.333Z,1003.57
2023-01-28T02:35:38.374Z,1003.62
2023-01-28T02:36:38.321Z,1003.60
2023-01-28T02:37:38.297Z,1003.63
2023-01-28T02:38:39.330Z,1003.64
2023-01-28T02:39:38.286Z,1003.64
2023-01-28T02:40:38.314Z,1003.63
2023-01-28T02:41:38.276Z,1003.65
2023-01-28T02:42:38.269Z,1003.71
2023-01-28T02:43:38.297Z,1003.72
2023-01-28T02:44:38.299Z,1003.69
2023-01-28T02:45:38.281Z,1003.73
2023-01-28T02:46:38.240Z,1003.73
2023-01-28T02:47:38.327Z,1003.70
2023-01-28T02:48:38.244Z,1003.70
2023-01-28T02:49:38.214Z,1003.66
2023-01-28T02:50:38.224Z,1003.67
2023-01-28T02:51:38.240Z,1003.69
2023-01-28T02:52:38.233Z,1003.67
2023-01-28T02:53:38.201Z,1003.73
2023-01-28T02:54:38.202Z,1003.76
2023-01-28T02:55:38.180Z,1003.70
2023-01-28T02:56:38.200Z,1003.68
2023-01-28T02:57:38.225Z,1003.76
2023-01-28T02:58:38.236Z,1003.78
2023-01-28T02:59:38.141Z,1003.74
2023-01-28T03:00:38.145Z,1003.78
2023-01-28T03:01:38.198Z,1003.78
2023-01-28T03:02:38.174Z,1003.77
2023-01-28T03:03:38.217Z,1003.79
2023-01-28T03:04:38.155Z,1003.82
2023-01-28T03:05:38.133Z,1003.84
2023-01-28T03:06:38.130Z,1003.81
2023-01-28T03:07:38.129Z,1003.86
2023-01-28T03:08:38.134Z,1003.78
2023-01-28T03:09:38.138Z,1003.83
2023-01-28T03:10:38.080Z,1003.84
2023-01-28T03:11:38.069Z,1003.89
2023-01-28T03:12:38.098Z,1003.88
2023-01-28T03:13:38.087Z,1003.89
2023-01-28T03:14:38.144Z,1003.89
2023-01-28T03:15:38.295Z,1003.88
2023-01-28T03:16:38.082Z,1003.89
2023-01-28T03:17:38.094Z,1003.88
2023-01-28T03:18:38.082Z,1003.86
2023-01-28T03:19:38.122Z,1003.86
2023-01-28T03:20:38.027Z,1003.89
2023-01-28T03:21:38.044Z,1003.88
2023-01-28T03:22:38.041Z,1003.81
2023-01-28T03:23:38.011Z,1003.89
2023-01-28T03:24:38.041Z,1003.88
2023-01-28T03:25:38.027Z,1003.89
2023-01-28T03:26:37.984Z,1003.84
2023-01-28T03:27:38.023Z,1003.87
2023-01-28T03:28:37.991Z,1003.89
2023-01-28T03:29:37.970Z,1003.87
2023-01-28T03:30:38.025Z,1003.92
2023-01-28T03:31:38.026Z,1003.92
2023-01-28T03:32:37.968Z,1003.81
2023-01-28T03:33:37.971Z,1003.84
2023-01-28T03:34:37.961Z,1003.85
2023-01-28T03:35:37.964Z,1003.93
2023-01-28T03:36:37.957Z,1003.90
2023-01-28T03:37:37.927Z,1003.87
2023-01-28T03:38:37.913Z,1003.92
2023-01-28T03:39:37.922Z,1003.89
2023-01-28T03:40:37.908Z,1003.90
2023-01-28T03:41:37.943Z,1003.87
2023-01-28T03:42:37.975Z,1003.86
2023-01-28T03:43:37.881Z,1003.88
2023-01-28T03:44:37.880Z,1003.97
2023-01-28T03:45:37.876Z,1003.93
2023-01-28T03:46:37.993Z,1003.95
2023-01-28T03:47:38.239Z,1004.02
2023-01-28T03:48:37.915Z,1003.93
2023-01-28T03:49:37.844Z,1003.94
2023-01-28T03:50:37.843Z,1004.00
2023-01-28T03:51:37.832Z,1004.03
2023-01-28T03:52:37.898Z,1004.03
2023-01-28T03:53:37.867Z,1003.96
2023-01-28T03:54:37.818Z,1004.00
2023-01-28T03:55:37.816Z,1003.97
2023-01-28T03:56:37.868Z,1004.00
2023-01-28T03:57:37.818Z,1003.97
2023-01-28T03:58:37.789Z,1003.98
2023-01-28T03:59:37.772Z,1003.97
2023-01-28T04:00:37.827Z,1003.99
2023-01-28T04:01:37.805Z,1003.97
2023-01-28T04:02:37.845Z,1003.93
2023-01-28T04:03:37.836Z,1003.98
2023-01-28T04:04:37.798Z,1003.98
2023-01-28T04:05:37.743Z,1004.01
2023-01-28T04:06:37.794Z,1004.03
2023-01-28T04:07:37.746Z,1004.05
2023-01-28T04:08:37.771Z,1004.01
2023-01-28T04:09:37.738Z,1004.07
2023-01-28T04:10:37.742Z,1004.03
2023-01-28T04:11:37.718Z,1004.08
2023-01-28T04:12:37.709Z,1004.05
2023-01-28T04:13:37.738Z,1004.01
2023-01-28T04:14:37.690Z,1004.05
2023-01-28T04:15:37.693Z,1004.08
2023-01-28T04:16:37.718Z,1004.07
2023-01-28T04:17:37.662Z,1004.08
2023-01-28T04:18:37.688Z,1004.07
2023-01-28T04:19:37.739Z,1004.14
2023-01-28T04:20:37.680Z,1004.09
2023-01-28T04:21:37.703Z,1004.04
2023-01-28T04:22:37.691Z,1004.10
2023-01-28T04:23:37.652Z,1004.08
2023-01-28T04:24:37.690Z,1004.12
2023-01-28T04:25:37.629Z,1004.12
2023-01-28T04:26:37.650Z,1004.16
2023-01-28T04:27:37.614Z,1004.05
2023-01-28T04:28:37.672Z,1004.06
2023-01-28T04:29:37.650Z,1004.02
2023-01-28T04:30:37.679Z,1004.06
2023-01-28T04:31:37.659Z,1004.11
2023-01-28T04:32:37.584Z,1004.06
2023-01-28T04:33:39.262Z,1004.12
2023-01-28T04:34:38.634Z,1004.16
2023-01-28T04:35:37.550Z,1004.14
2023-01-28T04:36:37.614Z,1004.15
2023-01-28T04:37:37.572Z,1004.18
2023-01-28T04:38:37.658Z,1004.05
2023-01-28T04:39:37.603Z,1004.17
2023-01-28T04:40:37.654Z,1004.09
2023-01-28T04:41:37.589Z,1004.14
2023-01-28T04:42:37.588Z,1004.13
2023-01-28T04:43:37.502Z,1004.16
2023-01-28T04:44:37.710Z,1004.07
2023-01-28T04:45:37.600Z,1004.14
2023-01-28T04:46:37.652Z,1004.10
2023-01-28T04:47:37.541Z,1004.06
2023-01-28T04:48:37.612Z,1004.14
2023-01-28T04:49:37.499Z,1004.10
2023-01-28T04:50:37.577Z,1004.16
2023-01-28T04:51:37.464Z,1004.16
2023-01-28T04:52:37.510Z,1004.17
2023-01-28T04:53:37.522Z,1004.12
2023-01-28T04:54:37.490Z,1004.16
2023-01-28T04:55:37.493Z,1004.18
2023-01-28T04:56:37.511Z,1004.16
2023-01-28T04:57:37.435Z,1004.14
2023-01-28T04:58:37.553Z,1004.13
2023-01-28T04:59:37.471Z,1004.19
2023-01-28T05:00:37.478Z,1004.15
2023-01-28T05:01:37.496Z,1004.08
2023-01-28T05:02:37.412Z,1004.13
2023-01-28T05:03:37.465Z,1004.13
2023-01-28T05:04:37.387Z,1004.17
2023-01-28T05:05:37.393Z,1004.18
2023-01-28T05:06:37.423Z,1004.15
2023-01-28T05:07:37.379Z,1004.13
2023-01-28T05:08:37.596Z,1004.16
2023-01-28T05:09:37.406Z,1004.08
2023-01-28T05:10:37.419Z,1004.16
2023-01-28T05:11:39.182Z,1004.22
2023-01-28T05:12:38.378Z,1004.18
2023-01-28T05:13:37.410Z,1004.12
2023-01-28T05:14:37.427Z,1004.20
2023-01-28T05:15:37.307Z,1004.19
2023-01-28T05:16:37.348Z,1004.23
2023-01-28T05:17:37.341Z,1004.23
2023-01-28T05:18:37.353Z,1004.21
2023-01-28T05:19:37.588Z,1004.20
2023-01-28T05:20:37.390Z,1004.25
2023-01-28T05:21:37.265Z,1004.20
2023-01-28T05:22:37.371Z,1004.14
2023-01-28T05:23:37.272Z,1004.15
2023-01-28T05:24:37.359Z,1004.21
2023-01-28T05:25:37.236Z,1004.15
2023-01-28T05:26:37.367Z,1004.23
2023-01-28T05:27:37.239Z,1004.19
2023-01-28T05:28:37.264Z,1004.20
2023-01-28T05:29:37.309Z,1004.17
2023-01-28T05:30:37.321Z,1004.17
2023-01-28T05:31:37.259Z,1004.23
2023-01-28T05:32:37.265Z,1004.22
2023-01-28T05:33:37.200Z,1004.23
2023-01-28T05:34:37.237Z,1004.22
2023-01-28T05:35:37.190Z,1004.28
2023-01-28T05:36:37.304Z,1004.20
2023-01-28T05:37:37.167Z,1004.23
2023-01-28T05:38:37.225Z,1004.18
2023-01-28T05:39:37.182Z,1004.21
2023-01-28T05:40:37.263Z,1004.26
2023-01-28T05:41:37.220Z,1004.28
2023-01-28T05:42:37.153Z,1004.28
2023-01-28T05:43:37.225Z,1004.30
2023-01-28T05:44:37.146Z,1004.33
2023-01-28T05:45:37.175Z,1004.29
2023-01-28T05:46:37.161Z,1004.29
2023-01-28T05:47:37.164Z,1004.30
2023-01-28T05:48:37.148Z,1004.26
2023-01-28T05:49:37.104Z,1004.38
2023-01-28T05:50:37.081Z,1004.27
2023-01-28T05:51:37.109Z,1004.36
2023-01-28T05:52:37.097Z,1004.38
2023-01-28T05:53:37.122Z,1004.39
2023-01-28T05:54:37.117Z,1004.38
2023-01-28T05:55:37.104Z,1004.36
2023-01-28T05:56:37.044Z,1004.34
2023-01-28T05:57:37.141Z,1004.40
2023-01-28T05:58:37.109Z,1004.40
2023-01-28T05:59:37.082Z,1004.40
2023-01-28T06:00:37.024Z,1004.38
2023-01-28T06:01:37.009Z,1004.41
2023-01-28T06:02:37.088Z,1004.40
2023-01-28T06:03:37.084Z,1004.43
2023-01-28T06:04:36.995Z,1004.42
2023-01-28T06:05:37.075Z,1004.43
2023-01-28T06:06:37.007Z,1004.44
2023-01-28T06:07:36.990Z,1004.47
2023-01-28T06:08:37.093Z,1004.49
2023-01-28T06:09:38.011Z,1004.49
2023-01-28T06:10:36.969Z,1004.48
2023-01-28T06:11:36.961Z,1004.47
2023-01-28T06:12:36.955Z,1004.46
2023-01-28T06:13:37.062Z,1004.47
2023-01-28T06:14:36.968Z,1004.47
2023-01-28T06:15:36.996Z,1004.49
2023-01-28T06:16:36.989Z,1004.54
2023-01-28T06:17:36.958Z,1004.47
2023-01-28T06:18:36.974Z,1004.46
2023-01-28T06:19:37.001Z,1004.48
2023-01-28T06:20:36.941Z,1004.46
2023-01-28T06:21:36.992Z,1004.51
2023-01-28T06:22:36.893Z,1004.53
2023-01-28T06:23:36.927Z,1004.54
2023-01-28T06:24:36.869Z,1004.51
2023-01-28T06:25:36.964Z,1004.51
2023-01-28T06:26:36.906Z,1004.60
2023-01-28T06:27:36.904Z,1004.60
2023-01-28T06:28:36.875Z,1004.61
2023-01-28T06:29:36.891Z,1004.54
2023-01-28T06:30:36.919Z,1004.64
2023-01-28T06:31:36.837Z,1004.64
2023-01-28T06:32:36.835Z,1004.61
2023-01-28T06:33:36.882Z,1004.65
2023-01-28T06:34:36.910Z,1004.62
2023-01-28T06:35:36.885Z,1004.63
2023-01-28T06:36:36.855Z,1004.62
2023-01-28T06:37:36.852Z,1004.66
2023-01-28T06:38:36.875Z,1004.68
2023-01-28T06:39:36.843Z,1004.66
2023-01-28T06:40:36.770Z,1004.71
2023-01-28T06:41:36.849Z,1004.73
2023-01-28T06:42:36.778Z,1004.70
2023-01-28T06:43:36.813Z,1004.78
2023-01-28T06:44:36.795Z,1004.78
2023-01-28T06:45:36.815Z,1004.74
2023-01-28T06:46:36.763Z,1004.73
2023-01-28T06:47:36.834Z,1004.72
2023-01-28T06:48:36.797Z,1004.83
2023-01-28T06:49:36.799Z,1004.77
2023-01-28T06:50:36.738Z,1004.84
2023-01-28T06:51:36.750Z,1004.85
2023-01-28T06:52:36.704Z,1004.82
2023-01-28T06:53:36.795Z,1004.82
2023-01-28T06:54:36.740Z,1004.86
2023-01-28T06:55:36.663Z,1004.82
2023-01-28T06:56:36.666Z,1004.92
2023-01-28T06:57:36.694Z,1004.87
2023-01-28T06:58:36.667Z,1004.91
2023-01-28T06:59:36.678Z,1005.00
2023-01-28T07:00:36.682Z,1005.01
2023-01-28T07:01:36.677Z,1004.97
2023-01-28T07:02:36.797Z,1005.02
2023-01-28T07:03:36.714Z,1005.03
2023-01-28T07:04:36.684Z,1005.06
2023-01-28T07:05:36.627Z,1005.04
2023-01-28T07:06:36.625Z,1005.06
2023-01-28T07:07:36.619Z,1005.03
2023-01-28T07:08:36.747Z,1005.01
2023-01-28T07:09:36.612Z,1005.06
2023-01-28T07:10:36.730Z,1005.04
2023-01-28T07:11:36.589Z,1005.03
2023-01-28T07:12:36.619Z,1004.97
2023-01-28T07:13:36.589Z,1005.01
2023-01-28T07:14:36.578Z,1005.06
2023-01-28T07:15:36.628Z,1005.05
2023-01-28T07:16:36.570Z,1005.09
2023-01-28T07:17:36.580Z,1005.08
2023-01-28T07:18:36.583Z,1005.08
2023-01-28T07:19:36.556Z,1005.09
2023-01-28T07:20:36.630Z,1005.12
2023-01-28T07:21:36.566Z,1005.08
2023-01-28T07:22:36.547Z,1005.08
2023-01-28T07:23:36.573Z,1005.11
2023-01-28T07:24:36.547Z,1005.14
2023-01-28T07:25:36.533Z,1005.12
2023-01-28T07:26:36.548Z,1005.14
2023-01-28T07:27:36.551Z,1005.17
2023-01-28T07:28:36.538Z,1005.17
2023-01-28T07:29:36.503Z,1005.13
2023-01-28T07:30:36.517Z,1005.15
2023-01-28T07:31:36.625Z,1005.10
2023-01-28T07:32:36.541Z,1005.10
2023-01-28T07:33:36.466Z,1005.17
2023-01-28T07:34:36.452Z,1005.13
2023-01-28T07:35:36.511Z,1005.15
2023-01-28T07:36:36.605Z,1005.11
2023-01-28T07:37:36.436Z,1005.18
2023-01-28T07:38:36.429Z,1005.08
2023-01-28T07:39:36.421Z,1005.16
2023-01-28T07:40:36.453Z,1005.13
2023-01-28T07:41:36.429Z,1005.09
2023-01-28T07:42:36.449Z,1005.08
2023-01-28T07:43:36.456Z,1005.08
2023-01-28T07:44:36.404Z,1005.12
2023-01-28T07:45:36.369Z,1005.10
2023-01-28T07:46:36.369Z,1005.14
2023-01-28T07:47:36.434Z,1005.13
2023-01-28T07:48:36.384Z,1005.10
2023-01-28T07:49:36.376Z,1005.09
2023-01-28T07:50:36.372Z,1005.04
2023-01-28T07:51:36.355Z,1005.08
2023-01-28T07:52:36.340Z,1005.06
2023-01-28T07:53:36.346Z,1005.08
2023-01-28T07:54:36.368Z,1005.12
2023-01-28T07:55:36.303Z,1005.07
2023-01-28T07:56:36.371Z,1005.13
2023-01-28T07:57:36.304Z,1005.07
2023-01-28T07:58:36.335Z,1005.02
2023-01-28T07:59:36.316Z,1005.06
2023-01-28T08:00:36.298Z,1004.98
2023-01-28T08:01:36.309Z,1005.03
2023-01-28T08:02:36.338Z,1005.03
2023-01-28T08:03:36.300Z,1005.06
2023-01-28T08:04:36.359Z,1005.07
2023-01-28T08:05:36.287Z,1005.07
2023-01-28T08:06:36.252Z,1005.00
2023-01-28T08:07:36.274Z,1004.99
2023-01-28T08:08:36.250Z,1005.06
2023-01-28T08:09:36.222Z,1005.03
2023-01-28T08:10:36.281Z,1005.08
2023-01-28T08:11:36.242Z,1005.01
2023-01-28T08:12:36.211Z,1005.06
2023-01-28T08:13:36.269Z,1005.08
2023-01-28T08:14:36.200Z,1005.07
2023-01-28T08:15:36.217Z,1005.16
2023-01-28T08:16:36.214Z,1005.14
2023-01-28T08:17:36.187Z,1005.16
2023-01-28T08:18:36.197Z,1005.13
2023-01-28T08:19:36.185Z,1005.19
2023-01-28T08:20:36.180Z,1005.13
2023-01-28T08:21:36.202Z,1005.20
2023-01-28T08:22:36.168Z,1005.16
2023-01-28T08:23:36.206Z,1005.17
2023-01-28T08:24:36.166Z,1005.17
2023-01-28T08:25:36.154Z,1005.16
2023-01-28T08:26:36.162Z,1005.14
2023-01-28T08:27:36.144Z,1005.21
2023-01-28T08:28:36.138Z,1005.19
2023-01-28T08:29:36.107Z,1005.18
2023-01-28T08:30:36.133Z,1005.19
2023-01-28T08:31:36.169Z,1005.17
2023-01-28T08:32:36.156Z,1005.19
2023-01-28T08:33:36.202Z,1005.17
2023-01-28T08:34:36.102Z,1005.21
2023-01-28T08:35:36.090Z,1005.23
2023-01-28T08:36:36.080Z,1005.28
2023-01-28T08:37:36.135Z,1005.21
2023-01-28T08:38:36.088Z,1005.27
2023-01-28T08:39:36.053Z,1005.24
2023-01-28T08:40:36.036Z,1005.26
2023-01-28T08:41:36.039Z,1005.23
2023-01-28T08:42:36.021Z,1005.20
2023-01-28T08:43:36.066Z,1005.18
2023-01-28T08:44:37.011Z,1005.24
2023-01-28T08:45:36.028Z,1005.19
2023-01-28T08:46:36.057Z,1005.23
2023-01-28T08:47:36.009Z,1005.27
2023-01-28T08:48:36.059Z,1005.26
2023-01-28T08:49:36.005Z,1005.29
2023-01-28T08:50:35.960Z,1005.31
2023-01-28T08:51:36.031Z,1005.28
2023-01-28T08:52:35.950Z,1005.31
2023-01-28T08:53:35.962Z,1005.35
2023-01-28T08:54:35.982Z,1005.32
2023-01-28T08:55:35.985Z,1005.30
2023-01-28T08:56:35.976Z,1005.37
2023-01-28T08:57:35.944Z,1005.31
2023-01-28T08:58:35.919Z,1005.34
2023-01-28T08:59:36.007Z,1005.35
2023-01-28T09:00:36.012Z,1005.38
2023-01-28T09:01:35.906Z,1005.38
2023-01-28T09:02:35.918Z,1005.36
2023-01-28T09:03:35.878Z,1005.31
2023-01-28T09:04:36.016Z,1005.31
2023-01-28T09:05:35.969Z,1005.37
2023-01-28T09:06:35.893Z,1005.35
2023-01-28T09:07:35.870Z,1005.40
2023-01-28T09:08:36.890Z,1005.37
2023-01-28T09:09:35.883Z,1005.38
2023-01-28T09:10:35.889Z,1005.35
2023-01-28T09:11:35.856Z,1005.28
2023-01-28T09:12:35.825Z,1005.30
2023-01-28T09:13:35.833Z,1005.31
2023-01-28T09:14:35.814Z,1005.30
2023-01-28T09:15:35.819Z,1005.27
2023-01-28T09:16:35.887Z,1005.26
2023-01-28T09:17:35.809Z,1005.25
2023-01-28T09:18:35.787Z,1005.29
2023-01-28T09:19:35.785Z,1005.30
2023-01-28T09:20:36.955Z,1005.30
2023-01-28T09:21:35.805Z,1005.33
2023-01-28T09:22:35.796Z,1005.33
2023-01-28T09:23:35.757Z,1005.39
2023-01-28T09:24:37.915Z,1005.40
2023-01-28T09:25:35.771Z,1005.41
2023-01-28T09:26:35.876Z,1005.47
2023-01-28T09:27:35.745Z,1005.46
2023-01-28T09:28:35.716Z,1005.49
2023-01-28T09:29:35.731Z,1005.48
2023-01-28T09:30:37.358Z,1005.51
2023-01-28T09:31:36.820Z,1005.50
2023-01-28T09:32:35.802Z,1005.52
2023-01-28T09:33:35.707Z,1005.56
2023-01-28T09:34:35.673Z,1005.53
2023-01-28T09:35:35.678Z,1005.60
2023-01-28T09:36:35.723Z,1005.62
2023-01-28T09:37:35.789Z,1005.62
2023-01-28T09:38:35.697Z,1005.63
2023-01-28T09:39:35.660Z,1005.65
2023-01-28T09:40:35.633Z,1005.65
2023-01-28T09:41:35.665Z,1005.72
2023-01-28T09:42:35.639Z,1005.70
2023-01-28T09:43:35.640Z,1005.75
2023-01-28T09:44:35.661Z,1005.79
2023-01-28T09:45:35.657Z,1005.83
2023-01-28T09:46:35.682Z,1005.87
2023-01-28T09:47:35.626Z,1005.88
2023-01-28T09:48:35.593Z,1005.86
2023-01-28T09:49:35.625Z,1005.89
2023-01-28T09:50:35.614Z,1005.91
2023-01-28T09:51:35.605Z,1005.92
2023-01-28T09:52:35.635Z,1005.89
2023-01-28T09:53:35.608Z,1005.93
2023-01-28T09:54:35.591Z,1005.88
2023-01-28T09:55:35.547Z,1005.82
2023-01-28T09:56:35.587Z,1005.90
2023-01-28T09:57:35.585Z,1005.89
2023-01-28T09:58:35.546Z,1005.91
2023-01-28T09:59:35.530Z,1005.96
2023-01-28T10:00:35.604Z,1005.98
2023-01-28T10:01:35.528Z,1005.98
2023-01-28T10:02:35.576Z,1006.09
2023-01-28T10:03:35.538Z,1006.15
2023-01-28T10:04:35.491Z,1006.16
2023-01-28T10:05:35.497Z,1006.09
2023-01-28T10:06:35.551Z,1006.10
2023-01-28T10:07:35.492Z,1006.08
2023-01-28T10:08:35.481Z,1006.09
2023-01-28T10:09:35.461Z,1006.10
2023-01-28T10:10:35.503Z,1006.12
2023-01-28T10:11:35.442Z,1006.13
2023-01-28T10:12:35.453Z,1006.07
2023-01-28T10:13:35.682Z,1006.17
2023-01-28T10:14:35.439Z,1006.10
2023-01-28T10:15:35.465Z,1005.96
2023-01-28T10:16:36.407Z,1005.91
2023-01-28T10:17:35.460Z,1005.87
2023-01-28T10:18:35.432Z,1005.88
2023-01-28T10:19:35.461Z,1005.91
2023-01-28T10:20:35.391Z,1005.90
2023-01-28T10:21:35.394Z,1005.94
2023-01-28T10:22:35.374Z,1005.88
2023-01-28T10:23:35.387Z,1005.92
2023-01-28T10:24:35.454Z,1005.93
2023-01-28T10:25:35.356Z,1005.93
2023-01-28T10:26:35.360Z,1006.02
2023-01-28T10:27:35.331Z,1005.96
2023-01-28T10:28:35.384Z,1005.96
2023-01-28T10:29:35.336Z,1005.95
2023-01-28T10:30:35.334Z,1005.93
2023-01-28T10:31:35.382Z,1005.89
2023-01-28T10:32:35.309Z,1005.90
2023-01-28T10:33:35.333Z,1005.89
2023-01-28T10:34:35.298Z,1005.87
2023-01-28T10:35:35.304Z,1005.91
2023-01-28T10:36:35.302Z,1005.87
2023-01-28T10:37:35.301Z,1005.94
2023-01-28T10:38:35.308Z,1005.92
2023-01-28T10:39:36.278Z,1005.96
2023-01-28T10:40:35.274Z,1005.89
2023-01-28T10:41:38.219Z,1005.90
2023-01-28T10:42:36.273Z,1005.93
2023-01-28T10:43:35.265Z,1005.92
2023-01-28T10:44:35.308Z,1005.91
2023-01-28T10:45:36.407Z,1005.96
2023-01-28T10:46:36.589Z,1005.93
2023-01-28T10:47:35.248Z,1005.92
2023-01-28T10:48:35.222Z,1005.86
2023-01-28T10:49:35.230Z,1005.89
2023-01-28T10:50:35.261Z,1005.89
2023-01-28T10:51:35.224Z,1005.85
2023-01-28T10:52:35.214Z,1005.86
2023-01-28T10:53:35.231Z,1005.82
2023-01-28T10:54:35.191Z,1005.84
2023-01-28T10:55:35.152Z,1005.89
2023-01-28T10:56:35.145Z,1005.90
2023-01-28T10:57:35.185Z,1005.93
2023-01-28T10:58:35.196Z,1005.93
2023-01-28T10:59:35.132Z,1005.99
2023-01-28T11:00:35.128Z,1005.97
2023-01-28T11:01:35.146Z,1006.01
2023-01-28T11:02:35.191Z,1005.93
2023-01-28T11:03:35.121Z,1005.90
2023-01-28T11:04:35.168Z,1005.92
2023-01-28T11:05:35.184Z,1005.95
2023-01-28T11:06:35.114Z,1005.92
2023-01-28T11:07:35.274Z,1005.92
2023-01-28T11:08:35.150Z,1005.87
2023-01-28T11:09:35.110Z,1005.88
2023-01-28T11:10:35.087Z,1005.86
2023-01-28T11:11:35.099Z,1005.89
2023-01-28T11:12:35.050Z,1005.90
2023-01-28T11:13:35.073Z,1005.89
2023-01-28T11:14:35.051Z,1005.90
2023-01-28T11:15:35.068Z,1005.91
2023-01-28T11:16:35.031Z,1005.84
2023-01-28T11:17:35.128Z,1005.79
2023-01-28T11:18:35.000Z,1005.85
2023-01-28T11:19:35.130Z,1005.86
2023-01-28T11:20:34.986Z,1005.84
2023-01-28T11:21:34.998Z,1005.89
2023-01-28T11:22:35.111Z,1005.89
2023-01-28T11:23:34.966Z,1005.92
2023-01-28T11:24:35.073Z,1005.95
2023-01-28T11:25:35.006Z,1005.97
2023-01-28T11:26:34.946Z,1005.98
2023-01-28T11:27:34.949Z,1005.93
2023-01-28T11:28:34.986Z,1005.87
2023-01-28T11:29:35.022Z,1005.86
2023-01-28T11:30:35.040Z,1005.82
2023-01-28T11:31:35.011Z,1005.83
2023-01-28T11:32:34.939Z,1005.85
2023-01-28T11:33:34.967Z,1005.80
2023-01-28T11:34:34.923Z,1005.87
2023-01-28T11:35:34.950Z,1005.82
2023-01-28T11:36:34.924Z,1005.82
2023-01-28T11:37:34.902Z,1005.76
2023-01-28T11:38:34.887Z,1005.77
2023-01-28T11:39:34.903Z,1005.76
2023-01-28T11:40:34.911Z,1005.71
2023-01-28T11:41:34.873Z,1005.72
2023-01-28T11:42:34.847Z,1005.69
2023-01-28T11:43:34.899Z,1005.72
2023-01-28T11:44:34.880Z,1005.75
2023-01-28T11:45:34.945Z,1005.70
2023-01-28T11:46:34.842Z,1005.81
2023-01-28T11:47:34.833Z,1005.77
2023-01-28T11:48:34.853Z,1005.83
2023-01-28T11:49:34.797Z,1005.70
2023-01-28T11:50:34.835Z,1005.68
2023-01-28T11:51:35.330Z,1005.70
2023-01-28T11:52:55.175Z,1005.62
2023-01-28T11:53:36.807Z,1005.64
2023-01-28T11:54:34.786Z,1005.61
2023-01-28T11:55:35.004Z,1005.63
2023-01-28T11:56:34.793Z,1005.59
2023-01-28T11:57:34.789Z,1005.57
2023-01-28T11:58:34.824Z,1005.58
2023-01-28T11:59:34.768Z,1005.53
2023-01-28T12:00:34.975Z,1005.61
2023-01-28T12:01:34.743Z,1005.55
2023-01-28T12:02:34.816Z,1005.50
2023-01-28T12:03:34.793Z,1005.48
2023-01-28T12:04:34.743Z,1005.52
2023-01-28T12:05:34.759Z,1005.56